createdAt,value
2023-01-13T00:04:12.547Z,7.30
2023-01-13T00:09:14.714Z,5.50
2023-01-13T00:14:18.180Z,5.70
2023-01-13T00:19:20.431Z,5.82
2023-01-13T00:24:22.759Z,5.85
2023-01-13T00:29:24.966Z,5.88
2023-01-13T00:34:27.212Z,5.93
2023-01-13T00:39:29.513Z,5.85
2023-01-13T00:44:31.671Z,6.07
2023-01-13T00:49:33.879Z,6.40
2023-01-13T00:54:36.081Z,6.32
2023-01-13T00:59:38.321Z,6.30
2023-01-13T01:04:40.574Z,6.25
2023-01-13T01:09:42.767Z,5.60
2023-01-13T01:14:45.071Z,6.20
2023-01-13T01:19:47.228Z,6.30
2023-01-13T01:24:49.408Z,6.40
2023-01-13T01:29:51.809Z,7.20
2023-01-13T01:34:53.977Z,6.97
2023-01-13T01:39:56.189Z,6.03
2023-01-13T01:45:03.744Z,5.75
2023-01-13T01:50:06.518Z,6.65
2023-01-13T01:55:15.359Z,6.65
2023-01-13T02:00:17.800Z,7.13
2023-01-13T02:05:20.470Z,6.50
2023-01-13T02:10:26.154Z,6.40
2023-01-13T02:15:44.248Z,6.72
2023-01-13T02:31:43.477Z,6.63
2023-01-13T02:47:24.647Z,6.43
2023-01-13T02:52:37.926Z,6.90
2023-01-13T02:57:41.611Z,7.05
2023-01-13T03:02:43.839Z,6.55
2023-01-13T03:23:52.137Z,5.75
2023-01-13T03:29:05.304Z,5.68
2023-01-13T03:34:13.299Z,5.63
2023-01-13T03:39:22.771Z,6.10
2023-01-13T03:49:59.518Z,5.80
2023-01-13T04:00:21.812Z,5.80
2023-01-13T04:05:25.155Z,5.80
2023-01-13T04:10:34.829Z,6.20
2023-01-13T04:15:41.175Z,7.03
2023-01-13T04:20:46.038Z,6.10
2023-01-13T04:25:48.746Z,6.18
2023-01-13T04:30:52.211Z,7.03
2023-01-13T04:35:55.312Z,6.40
2023-01-13T04:40:57.580Z,6.18
2023-01-13T04:45:59.829Z,6.63
2023-01-13T04:51:02.058Z,6.57
2023-01-13T04:56:04.388Z,6.63
2023-01-13T05:01:06.671Z,6.68
2023-01-13T05:06:08.962Z,7.03
2023-01-13T05:11:31.075Z,6.40
2023-01-13T05:16:53.445Z,7.20
2023-01-13T05:22:15.927Z,6.93
2023-01-13T05:27:18.217Z,7.45
2023-01-13T05:32:21.697Z,8.50
2023-01-13T05:37:25.789Z,6.88
2023-01-13T05:42:48.264Z,7.47
2023-01-13T05:47:50.800Z,9.07
2023-01-13T05:52:53.084Z,7.72
2023-01-13T05:57:55.364Z,7.47
2023-01-13T06:02:57.630Z,8.18
2023-01-13T06:08:01.286Z,7.53
2023-01-13T06:13:04.727Z,8.00
2023-01-13T06:18:06.986Z,7.88
2023-01-13T06:23:11.503Z,8.00
2023-01-13T06:28:13.827Z,8.10
2023-01-13T06:33:20.704Z,9.88
2023-01-13T06:38:27.240Z,9.65
2023-01-13T06:43:29.562Z,10.68
2023-01-13T06:48:35.481Z,9.20
2023-01-13T06:53:37.920Z,9.45
2023-01-13T06:58:40.160Z,9.20
2023-01-13T07:03:42.415Z,9.40
2023-01-13T07:08:44.639Z,9.25
2023-01-13T07:14:06.813Z,11.30
2023-01-13T07:19:09.118Z,10.50
2023-01-13T07:24:11.369Z,10.57
2023-01-13T07:29:13.755Z,9.45
2023-01-13T07:34:16.107Z,9.63
2023-01-13T07:39:18.429Z,10.10
2023-01-13T07:44:20.717Z,10.32
2023-01-13T07:49:23.124Z,10.80
2023-01-13T07:54:39.578Z,15.02
2023-01-13T07:59:42.999Z,12.48
2023-01-13T08:04:45.254Z,14.20
2023-01-13T08:09:47.553Z,10.98
2023-01-13T08:14:50.956Z,10.23
2023-01-13T08:19:53.273Z,11.07
2023-01-13T08:24:55.518Z,9.75
2023-01-13T08:29:57.747Z,10.27
2023-01-13T08:34:59.959Z,10.52
2023-01-13T08:40:02.315Z,9.73
2023-01-13T08:45:06.259Z,10.15
2023-01-13T08:50:09.372Z,11.88
2023-01-13T08:55:12.139Z,12.52
2023-01-13T09:00:15.220Z,10.88
2023-01-13T15:42:18.010Z,24.45
2023-01-13T15:47:23.032Z,24.63
2023-01-13T15:52:27.597Z,23.13
2023-01-13T15:57:33.067Z,22.38
2023-01-13T16:02:35.358Z,20.20
2023-01-13T16:07:37.836Z,19.08
2023-01-13T16:12:40.071Z,19.08
2023-01-13T16:17:44.349Z,18.58
2023-01-13T16:22:46.604Z,24.45
2023-01-13T16:27:48.885Z,21.48
2023-01-13T16:32:51.392Z,21.83
2023-01-13T16:37:55.067Z,23.15
2023-01-13T16:42:57.949Z,20.73
2023-01-13T16:48:00.348Z,20.00
2023-01-13T16:53:04.444Z,21.10
2023-01-13T16:58:12.359Z,21.17
2023-01-13T17:03:15.531Z,21.52
2023-01-13T17:08:18.306Z,21.55
2023-01-13T17:13:21.032Z,22.48
2023-01-13T17:18:23.322Z,21.63
2023-01-13T17:23:25.579Z,19.80
2023-01-13T17:28:27.856Z,20.63
2023-01-13T17:33:37.144Z,23.88
2023-01-13T17:38:39.400Z,28.85
2023-01-13T17:43:41.704Z,23.13
2023-01-13T17:48:44.268Z,18.65
2023-01-13T17:53:46.916Z,17.67
2023-01-13T17:58:49.209Z,18.77
2023-01-13T18:03:51.579Z,18.30
2023-01-13T18:08:54.069Z,18.30
2023-01-13T18:13:57.712Z,17.80
2023-01-13T18:19:20.727Z,16.02
2023-01-13T18:24:42.792Z,15.25
2023-01-13T18:29:46.701Z,18.08
2023-01-13T18:34:50.459Z,26.40
2023-01-13T18:39:56.131Z,19.77
2023-01-13T18:44:58.543Z,18.42
2023-01-13T18:50:00.868Z,20.67
2023-01-13T18:55:03.885Z,20.20
2023-01-13T19:00:13.047Z,22.42
2023-01-13T19:05:15.475Z,21.42
2023-01-13T19:10:18.301Z,22.25
2023-01-13T19:15:20.547Z,25.65
2023-01-13T19:20:22.767Z,25.48
2023-01-13T19:25:25.117Z,25.23
2023-01-13T19:30:27.362Z,26.48
2023-01-13T19:35:29.564Z,30.77
2023-01-13T19:40:31.761Z,28.40
2023-01-13T19:45:35.496Z,26.27
2023-01-13T19:50:39.973Z,35.72
2023-01-13T19:55:48.501Z,25.83
2023-01-13T20:00:51.606Z,25.33
2023-01-13T20:05:54.434Z,21.60
2023-01-13T20:11:16.570Z,20.90
2023-01-13T20:16:18.884Z,22.67
2023-01-13T20:21:21.245Z,24.45
2023-01-13T20:26:23.478Z,20.88
2023-01-13T20:31:25.805Z,20.65
2023-01-13T20:36:33.563Z,20.85
2023-01-13T20:41:55.645Z,23.08
2023-01-13T20:46:59.169Z,26.83
2023-01-13T20:52:01.573Z,24.85
2023-01-13T20:57:05.693Z,25.92
2023-01-13T21:02:13.317Z,26.02
2023-01-13T21:07:15.619Z,41.20
2023-01-13T21:12:37.775Z,27.70
2023-01-13T21:17:59.908Z,25.55
2023-01-13T21:23:03.743Z,24.48
2023-01-13T21:28:06.796Z,24.98
2023-01-13T21:33:13.365Z,20.60
2023-01-13T21:38:15.552Z,22.75
2023-01-13T21:43:37.609Z,23.10
2023-01-13T21:48:39.850Z,24.80
2023-01-13T21:53:42.115Z,24.08
2023-01-13T21:58:44.390Z,24.60
2023-01-13T22:04:06.482Z,21.42
2023-01-13T22:09:08.733Z,20.80
2023-01-13T22:14:11.087Z,23.80
2023-01-13T22:19:13.271Z,24.45
2023-01-13T22:24:15.564Z,21.92
2023-01-13T22:29:17.996Z,21.92
2023-01-13T22:34:20.347Z,20.23
2023-01-13T22:39:22.578Z,20.42
2023-01-13T22:44:25.205Z,19.40
2023-01-13T22:49:27.482Z,18.08
2023-01-13T22:54:30.435Z,17.20
2023-01-13T22:59:32.705Z,18.02
2023-01-13T23:04:35.166Z,18.00
2023-01-13T23:09:37.349Z,13.80
2023-01-13T23:14:39.580Z,13.68
2023-01-13T23:19:41.883Z,13.50
2023-01-13T23:24:44.103Z,14.73
2023-01-13T23:29:46.332Z,14.32
2023-01-13T23:34:48.647Z,14.85
2023-01-13T23:39:50.896Z,15.35
2023-01-13T23:44:53.081Z,15.07
2023-01-13T23:49:55.286Z,14.20
2023-01-13T23:54:59.277Z,15.05
